createdAt,value
2023-04-04T00:02:33.862Z,2.17
2023-04-04T00:07:54.479Z,2.30
2023-04-04T00:13:15.442Z,2.33
2023-04-04T00:18:36.303Z,2.31
2023-04-04T00:23:57.723Z,2.37
2023-04-04T00:29:18.632Z,2.44
2023-04-04T00:34:39.207Z,2.64
2023-04-04T00:40:00.036Z,2.82
2023-04-04T00:45:20.789Z,2.82
2023-04-04T00:50:41.795Z,2.74
2023-04-04T00:56:02.956Z,2.66
2023-04-04T01:01:25.861Z,2.52
2023-04-04T01:06:47.005Z,2.38
2023-04-04T01:12:07.702Z,2.19
2023-04-04T01:17:29.711Z,2.02
2023-04-04T01:22:51.920Z,2.07
2023-04-04T01:28:13.489Z,1.98
2023-04-04T01:33:43.391Z,1.83
2023-04-04T01:39:18.794Z,1.76
2023-04-04T01:44:39.900Z,1.79
2023-04-04T01:50:00.769Z,1.86
2023-04-04T01:55:21.901Z,1.92
2023-04-04T02:00:42.802Z,2.01
2023-04-04T02:06:03.947Z,2.01
2023-04-04T02:11:25.143Z,2.08
2023-04-04T02:16:46.240Z,2.02
2023-04-04T02:22:07.155Z,2.01
2023-04-04T02:27:27.828Z,1.98
2023-04-04T02:32:49.037Z,2.00
2023-04-04T02:38:12.872Z,2.03
2023-04-04T02:43:39.564Z,1.82
2023-04-04T02:49:03.746Z,1.70
2023-04-04T02:54:25.784Z,1.50
2023-04-04T02:59:46.987Z,1.62
2023-04-04T03:05:08.093Z,1.57
2023-04-04T03:10:32.777Z,1.51
2023-04-04T03:16:06.769Z,1.30
2023-04-04T03:21:47.614Z,1.32
2023-04-04T03:27:08.463Z,1.35
2023-04-04T03:32:29.161Z,1.36
2023-04-04T03:37:49.852Z,1.49
2023-04-04T03:43:10.576Z,1.65
2023-04-04T03:48:31.952Z,1.59
2023-04-04T03:53:52.535Z,1.37
2023-04-04T03:59:13.457Z,1.16
2023-04-04T04:04:34.156Z,1.17
2023-04-04T04:09:55.274Z,1.26
2023-04-04T04:15:16.048Z,1.30
2023-04-04T04:20:38.627Z,1.23
2023-04-04T04:25:59.708Z,1.27
2023-04-04T04:31:22.420Z,1.13
2023-04-04T04:36:45.518Z,0.94
2023-04-04T04:42:19.763Z,1.00
2023-04-04T04:47:46.271Z,1.09
2023-04-04T04:53:10.782Z,1.15
2023-04-04T04:58:32.528Z,1.13
2023-04-04T05:03:55.081Z,1.17
2023-04-04T05:09:22.811Z,1.09
2023-04-04T05:14:44.804Z,0.87
2023-04-04T05:20:07.744Z,0.82
2023-04-04T05:25:31.191Z,0.62
2023-04-04T05:30:53.623Z,0.39
2023-04-04T05:36:18.678Z,0.28
2023-04-04T05:41:47.223Z,0.34
2023-04-04T05:47:11.152Z,0.53
2023-04-04T05:52:36.594Z,0.55
2023-04-04T05:57:58.622Z,0.44
2023-04-04T06:03:33.892Z,0.47
2023-04-04T06:08:56.034Z,0.56
2023-04-04T06:14:16.657Z,0.66
2023-04-04T06:19:39.359Z,0.73
2023-04-04T06:24:59.976Z,0.98
2023-04-04T06:30:21.857Z,1.01
2023-04-04T06:35:45.881Z,1.04
2023-04-04T06:41:08.300Z,1.06
2023-04-04T06:46:31.478Z,1.07
2023-04-04T06:51:52.700Z,1.11
2023-04-04T06:57:13.726Z,1.13
2023-04-04T07:02:35.099Z,1.05
2023-04-04T07:07:57.038Z,1.37
2023-04-04T07:13:17.893Z,1.72
2023-04-04T07:18:38.634Z,1.93
2023-04-04T07:24:00.229Z,2.05
2023-04-04T07:29:24.079Z,2.10
2023-04-04T07:34:45.706Z,2.16
2023-04-04T07:40:08.783Z,2.27
2023-04-04T07:45:29.993Z,2.42
2023-04-04T07:50:50.633Z,2.64
2023-04-04T07:56:11.373Z,2.72
2023-04-04T08:01:32.158Z,2.70
2023-04-04T08:06:53.215Z,2.81
2023-04-04T08:12:13.999Z,2.70
2023-04-04T08:17:34.823Z,2.66
2023-04-04T08:22:55.436Z,2.35
2023-04-04T08:28:16.174Z,2.35
2023-04-04T08:33:47.251Z,2.33
2023-04-04T08:39:08.802Z,2.36
2023-04-04T08:44:30.753Z,2.36
2023-04-04T08:49:53.295Z,2.14
2023-04-04T08:55:15.398Z,1.99
2023-04-04T09:00:37.111Z,1.97
2023-04-04T09:05:57.986Z,2.25
2023-04-04T09:11:21.204Z,2.49
2023-04-04T09:16:42.454Z,2.73
2023-04-04T09:22:03.099Z,2.99
2023-04-04T09:27:24.097Z,3.28
2023-04-04T09:32:44.909Z,3.13
2023-04-04T09:38:08.981Z,3.14
2023-04-04T09:43:31.179Z,3.44
2023-04-04T09:48:52.183Z,3.38
2023-04-04T09:54:28.911Z,3.47
2023-04-04T09:59:51.439Z,3.20
2023-04-04T10:05:12.610Z,3.12
2023-04-04T10:10:34.391Z,3.15
2023-04-04T10:16:00.701Z,3.41
2023-04-04T10:21:22.577Z,3.52
2023-04-04T10:26:43.330Z,3.49
2023-04-04T10:32:12.574Z,3.37
2023-04-04T10:37:43.373Z,3.36
2023-04-04T10:43:05.332Z,3.49
2023-04-04T10:48:26.935Z,3.63
2023-04-04T10:53:48.449Z,3.84
2023-04-04T10:59:13.946Z,4.01
2023-04-04T11:04:42.082Z,3.84
2023-04-04T11:10:14.861Z,3.83
2023-04-04T11:15:58.498Z,3.73
2023-04-04T11:21:24.131Z,3.55
2023-04-04T11:26:46.158Z,3.52
2023-04-04T11:32:33.417Z,3.63
2023-04-04T11:37:54.161Z,3.81
2023-04-04T11:43:16.726Z,3.73
2023-04-04T11:48:38.891Z,3.66
2023-04-04T11:53:59.825Z,3.62
2023-04-04T11:59:22.733Z,3.88
2023-04-04T12:04:46.122Z,3.92
2023-04-04T12:10:09.069Z,3.95
2023-04-04T12:15:30.083Z,3.84
2023-04-04T12:20:52.186Z,3.81
2023-04-04T12:26:13.456Z,3.80
2023-04-04T12:31:34.548Z,4.04
2023-04-04T12:36:59.340Z,4.26
2023-04-04T12:42:25.121Z,4.22
2023-04-04T12:47:55.951Z,4.29
2023-04-04T12:59:04.903Z,4.07
2023-04-04T13:04:25.684Z,3.86
2023-04-04T13:09:58.518Z,3.75
2023-04-04T13:15:19.759Z,4.09
2023-04-04T13:20:40.690Z,4.36
2023-04-04T13:26:01.442Z,4.31
2023-04-04T13:31:22.303Z,4.30
2023-04-04T13:36:44.404Z,4.25
2023-04-04T13:42:05.028Z,4.35
2023-04-04T13:47:27.574Z,4.32
2023-04-04T13:52:48.470Z,4.20
2023-04-04T13:58:09.195Z,4.04
2023-04-04T14:03:31.127Z,4.01
2023-04-04T14:08:51.865Z,4.00
2023-04-04T14:14:12.461Z,3.93
2023-04-04T14:19:33.068Z,3.94
2023-04-04T14:24:53.696Z,4.08
2023-04-04T14:30:14.772Z,3.97
2023-04-04T14:35:36.588Z,3.88
2023-04-04T14:40:57.532Z,4.11
2023-04-04T14:46:19.851Z,4.15
2023-04-04T14:51:41.012Z,4.30
2023-04-04T14:57:02.305Z,4.30
2023-04-04T15:02:23.279Z,4.21
2023-04-04T15:07:45.357Z,3.99
2023-04-04T15:13:06.997Z,3.91
2023-04-04T15:18:28.387Z,3.98
2023-04-04T15:23:49.161Z,3.77
2023-04-04T15:29:09.894Z,3.70
2023-04-04T15:34:30.713Z,3.69
2023-04-04T15:39:53.644Z,3.61
2023-04-04T15:45:16.163Z,3.55
2023-04-04T15:50:36.886Z,3.51
2023-04-04T15:55:58.124Z,3.63
2023-04-04T16:01:18.894Z,3.53
2023-04-04T16:06:39.567Z,3.40
2023-04-04T16:12:02.309Z,3.35
2023-04-04T16:17:23.241Z,3.32
2023-04-04T16:22:44.132Z,3.33
2023-04-04T16:28:04.985Z,3.28
2023-04-04T16:33:25.739Z,3.28
2023-04-04T16:38:46.417Z,3.23
2023-04-04T16:44:07.152Z,3.18
2023-04-04T16:49:27.858Z,3.07
2023-04-04T16:54:48.542Z,3.07
2023-04-04T17:00:12.596Z,3.04
2023-04-04T17:05:33.428Z,2.94
2023-04-04T17:10:54.322Z,2.90
2023-04-04T17:16:15.116Z,2.97
2023-04-04T17:21:36.258Z,2.95
2023-04-04T17:26:58.385Z,3.14
2023-04-04T17:32:19.504Z,3.05
2023-04-04T17:37:40.967Z,2.96
2023-04-04T17:43:02.023Z,2.73
2023-04-04T17:48:26.786Z,2.81
2023-04-04T17:53:47.884Z,2.77
2023-04-04T17:59:08.800Z,2.72
2023-04-04T18:04:29.738Z,2.77
2023-04-04T18:09:50.848Z,2.78
2023-04-04T18:15:12.408Z,2.74
2023-04-04T18:20:42.562Z,2.73
2023-04-04T18:26:03.533Z,2.68
2023-04-04T18:31:24.272Z,2.61
2023-04-04T18:36:46.276Z,2.38
2023-04-04T18:42:10.588Z,2.39
2023-04-04T18:47:31.654Z,2.31
2023-04-04T18:52:52.676Z,2.79
2023-04-04T18:58:13.462Z,2.61
2023-04-04T19:03:41.977Z,2.52
2023-04-04T19:09:04.332Z,2.37
2023-04-04T19:14:26.056Z,2.16
2023-04-04T19:19:47.469Z,2.03
2023-04-04T19:25:09.038Z,1.94
2023-04-04T19:30:47.422Z,1.89
2023-04-04T19:36:11.237Z,1.76
2023-04-04T19:41:39.971Z,1.76
2023-04-04T19:47:01.174Z,1.74
2023-04-04T19:52:23.979Z,1.68
2023-04-04T19:57:44.747Z,1.60
2023-04-04T20:03:08.641Z,1.55
2023-04-04T20:08:36.590Z,1.49
2023-04-04T20:13:59.439Z,1.42
2023-04-04T20:19:20.844Z,1.35
2023-04-04T20:24:45.042Z,1.36
2023-04-04T20:30:11.671Z,1.41
2023-04-04T20:35:32.623Z,1.44
2023-04-04T20:40:54.275Z,1.34
2023-04-04T20:46:15.114Z,1.44
2023-04-04T20:51:37.833Z,1.49
2023-04-04T20:56:58.483Z,1.78
2023-04-04T21:02:23.503Z,1.84
2023-04-04T21:07:44.134Z,1.96
2023-04-04T21:13:06.010Z,2.03
2023-04-04T21:18:37.166Z,2.10
2023-04-04T21:24:01.663Z,2.24
2023-04-04T21:29:24.214Z,2.34
2023-04-04T21:34:44.870Z,2.33
2023-04-04T21:40:08.670Z,2.26
2023-04-04T21:45:29.265Z,2.11
2023-04-04T21:50:50.702Z,2.13
2023-04-04T21:56:12.354Z,1.99
2023-04-04T22:01:33.732Z,2.08
2023-04-04T22:06:54.696Z,2.02
2023-04-04T22:12:15.299Z,2.02
2023-04-04T22:17:36.332Z,2.06
2023-04-04T22:22:58.172Z,2.10
2023-04-04T22:28:24.803Z,1.93
2023-04-04T22:33:45.636Z,1.82
2023-04-04T22:39:06.357Z,1.73
2023-04-04T22:44:27.140Z,1.73
2023-04-04T22:49:51.041Z,1.77
2023-04-04T22:55:18.041Z,1.64
2023-04-04T23:00:39.382Z,1.28
2023-04-04T23:06:00.542Z,1.13
2023-04-04T23:11:22.130Z,1.24
2023-04-04T23:16:43.005Z,1.24
2023-04-04T23:22:03.783Z,1.24
2023-04-04T23:27:24.588Z,1.06
2023-04-04T23:32:45.340Z,1.14
2023-04-04T23:38:06.015Z,1.13
2023-04-04T23:43:26.600Z,1.13
2023-04-04T23:48:47.409Z,1.00
2023-04-04T23:54:09.688Z,0.80
2023-04-04T23:59:30.277Z,0.84
